createdAt,value
2023-04-07T00:01:29.181Z,2.05
2023-04-07T00:11:35.640Z,2.07
2023-04-07T00:21:42.470Z,2.12
2023-04-07T00:31:48.899Z,1.99
2023-04-07T00:41:55.410Z,2.05
2023-04-07T00:52:02.765Z,2.07
2023-04-07T01:02:18.199Z,2.13
2023-04-07T01:12:34.577Z,2.08
2023-04-07T01:22:47.687Z,2.06
2023-04-07T01:32:54.944Z,2.01
2023-04-07T01:43:02.187Z,2.05
2023-04-07T01:53:09.029Z,2.10
2023-04-07T02:03:22.824Z,2.08
2023-04-07T02:13:30.463Z,2.14
2023-04-07T02:23:37.482Z,2.09
2023-04-07T02:33:43.953Z,2.21
2023-04-07T02:43:50.508Z,2.23
2023-04-07T02:53:57.289Z,2.22
2023-04-07T03:04:04.012Z,2.16
2023-04-07T03:14:10.617Z,2.09
2023-04-07T03:24:17.219Z,2.20
2023-04-07T03:34:23.692Z,2.19
2023-04-07T03:44:30.189Z,2.25
2023-04-07T03:54:36.898Z,2.23
2023-04-07T04:04:43.781Z,2.23
2023-04-07T04:14:50.226Z,2.16
2023-04-07T04:24:56.871Z,2.19
2023-04-07T04:35:03.513Z,2.32
2023-04-07T04:45:10.414Z,2.44
2023-04-07T04:55:17.443Z,2.41
2023-04-07T05:05:23.942Z,2.37
2023-04-07T05:15:30.488Z,2.37
2023-04-07T05:25:37.227Z,2.41
2023-04-07T05:35:46.144Z,2.40
2023-04-07T05:45:52.806Z,2.42
2023-04-07T05:56:00.388Z,2.52
2023-04-07T06:06:07.256Z,2.45
2023-04-07T06:16:13.807Z,2.65
2023-04-07T06:26:20.306Z,2.79
2023-04-07T06:36:27.072Z,2.81
2023-04-07T06:46:33.713Z,2.82
2023-04-07T06:56:40.541Z,3.06
2023-04-07T07:06:47.074Z,3.02
2023-04-07T07:16:53.550Z,3.05
2023-04-07T07:26:59.997Z,3.30
2023-04-07T07:37:06.678Z,3.23
2023-04-07T07:47:13.902Z,3.32
2023-04-07T07:57:20.401Z,3.33
2023-04-07T08:07:26.999Z,3.43
2023-04-07T08:17:33.532Z,3.56
2023-04-07T08:27:40.133Z,3.34
2023-04-07T08:37:47.060Z,3.62
2023-04-07T08:47:58.440Z,3.69
2023-04-07T08:58:05.193Z,3.76
2023-04-07T09:08:11.719Z,4.08
2023-04-07T09:18:18.387Z,4.17
2023-04-07T09:28:25.073Z,4.05
2023-04-07T09:38:35.908Z,4.06
2023-04-07T09:48:42.877Z,4.05
2023-04-07T09:58:52.776Z,3.96
2023-04-07T10:08:59.640Z,3.71
2023-04-07T10:29:31.262Z,4.14
2023-04-07T10:39:39.110Z,4.03
2023-04-07T10:50:14.130Z,4.23
2023-04-07T11:00:21.050Z,4.23
2023-04-07T11:10:27.615Z,4.29
2023-04-07T11:20:46.082Z,4.32
2023-04-07T11:30:55.446Z,4.53
2023-04-07T11:41:12.481Z,4.53
2023-04-07T11:51:20.656Z,4.78
2023-04-07T12:01:41.887Z,4.79
2023-04-07T12:11:51.592Z,4.87
2023-04-07T12:21:58.468Z,4.85
2023-04-07T12:32:06.148Z,4.92
2023-04-07T12:42:13.371Z,4.83
2023-04-07T12:52:19.841Z,4.89
2023-04-07T13:02:26.451Z,5.04
2023-04-07T13:12:32.996Z,4.76
2023-04-07T13:22:48.802Z,4.83
2023-04-07T13:32:58.799Z,4.87
2023-04-07T13:43:05.509Z,4.93
2023-04-07T13:53:12.104Z,4.95
2023-04-07T14:03:18.639Z,5.08
2023-04-07T14:13:25.145Z,5.05
2023-04-07T14:23:37.162Z,5.05
2023-04-07T14:33:45.215Z,5.05
2023-04-07T14:43:57.128Z,4.97
2023-04-07T14:54:03.731Z,5.21
2023-04-07T15:04:10.313Z,5.23
2023-04-07T15:14:16.871Z,5.20
2023-04-07T15:24:23.674Z,5.21
2023-04-07T15:34:30.170Z,5.26
2023-04-07T15:44:40.902Z,5.32
2023-04-07T15:54:47.372Z,5.28
2023-04-07T16:04:53.934Z,5.28
2023-04-07T16:15:00.436Z,5.21
2023-04-07T16:25:07.721Z,5.26
2023-04-07T16:35:15.864Z,5.23
2023-04-07T16:45:22.362Z,5.28
2023-04-07T16:55:30.129Z,5.17
2023-04-07T17:05:36.788Z,5.18
2023-04-07T17:15:43.305Z,5.16
2023-04-07T17:25:52.870Z,5.21
2023-04-07T17:35:59.613Z,5.15
2023-04-07T17:46:06.307Z,5.21
2023-04-07T17:56:13.929Z,5.16
2023-04-07T18:06:20.579Z,5.15
2023-04-07T18:16:27.187Z,5.21
2023-04-07T18:26:33.797Z,5.27
2023-04-07T18:36:42.620Z,5.23
2023-04-07T18:46:49.157Z,5.29
2023-04-07T18:56:55.986Z,5.30
2023-04-07T19:07:02.926Z,5.33
2023-04-07T19:17:09.403Z,5.29
2023-04-07T19:27:16.144Z,5.36
2023-04-07T19:37:22.612Z,5.24
2023-04-07T19:47:29.764Z,5.30
2023-04-07T19:57:36.318Z,5.36
2023-04-07T20:07:43.065Z,5.45
2023-04-07T20:17:49.645Z,5.44
2023-04-07T20:27:56.159Z,5.42
2023-04-07T20:38:04.088Z,5.52
2023-04-07T20:48:10.570Z,5.52
2023-04-07T20:58:19.000Z,5.49
2023-04-07T21:08:25.971Z,5.40
2023-04-07T21:18:33.364Z,5.42
2023-04-07T21:28:41.775Z,5.20
2023-04-07T21:38:49.007Z,5.29
2023-04-07T21:48:55.832Z,5.22
2023-04-07T21:59:02.878Z,5.01
2023-04-07T22:09:12.368Z,4.92
2023-04-07T22:19:19.121Z,4.68
2023-04-07T22:29:25.643Z,4.51
2023-04-07T22:39:32.261Z,4.51
2023-04-07T22:49:38.725Z,4.50
2023-04-07T22:59:45.295Z,4.41
2023-04-07T23:09:51.744Z,4.15
2023-04-07T23:19:58.342Z,4.16
2023-04-07T23:30:05.855Z,3.96
2023-04-07T23:40:12.756Z,4.02
2023-04-07T23:50:19.269Z,3.99
